Other Surface Observations
Issued by NWS Missoula, MT

Home | Current Version | Previous Version | Text Only | Print | Product List | Glossary On
Versions: 1 2 3 4 5 6 7 8 9 10 11 12 13 14 15 16 17 18 19 20 21 22 23 24 25 26 27 28 29 30 31 32 33 34 35 36 37 38 39 40 41 42 43 44 45 46 47 48 49 50
000
SXUS55 KMSO 281823
OSOMSO
MONTANA AWOS SUMMARY
NATIONAL WEATHER SERVICE MISSOULA MT
1123 AM MST SAT MAR 28 2015

Montana AWOS Reports

TWIN BRIDGES|K7S1 281815Z AUTO 24015G31KT 40SM 10/M06 A3001 RMK AO1 T01001055
LAUREL      |K6S8 281815Z AUTO 19014G21KT 40SM 24/01 A2969 RMK AO1 T02390006
ROUNDUP     |KRPX 281815Z AUTO 21022G33KT 40SM 24/M02 A2957 RMK AO1 T02441016
MALTA       |KM75 281815Z AUTO 24010G16KT 40SM 18/05 A2954 RMK AO1 T01830050




USA.gov is the U.S. government's official web portal to all federal, state and local government web resources and services.